createdAt,value
2022-07-29T00:06:35.848Z,17.27
2022-07-29T00:07:07.872Z,17.27
2022-07-29T00:07:39.717Z,17.27
2022-07-29T00:08:12.498Z,17.27
2022-07-29T00:08:43.737Z,17.27
2022-07-29T00:09:15.980Z,17.27
2022-07-29T00:09:50.419Z,17.27
2022-07-29T00:10:01.939Z,17.27
2022-07-29T00:10:35.879Z,17.27
2022-07-29T00:11:07.805Z,17.22
2022-07-29T00:11:39.841Z,17.22
2022-07-29T00:12:10.236Z,17.22
2022-07-29T00:12:43.855Z,17.22
2022-07-29T00:13:15.986Z,17.22
2022-07-29T00:13:39.111Z,17.22
2022-07-29T00:14:01.408Z,17.22
2022-07-29T00:14:35.795Z,17.22
2022-07-29T00:15:09.378Z,17.11
2022-07-29T00:15:34.091Z,17.11
2022-07-29T00:16:11.206Z,17.11
2022-07-29T00:16:44.744Z,17.11
2022-07-29T00:17:15.892Z,17.11
2022-07-29T00:17:38.575Z,17.11
2022-07-29T00:18:00.959Z,17.11
2022-07-29T00:18:36.210Z,17.11
2022-07-29T00:19:08.148Z,17.11
2022-07-29T00:19:41.957Z,17.11
2022-07-29T00:20:10.858Z,17.11
2022-07-29T00:20:44.715Z,17.11
2022-07-29T00:21:16.121Z,17.11
2022-07-29T00:21:38.857Z,17.11
2022-07-29T00:22:01.251Z,17.11
2022-07-29T00:22:36.158Z,17.11
2022-07-29T00:23:07.864Z,17.11
2022-07-29T00:23:40.034Z,17.11
2022-07-29T00:24:13.895Z,17.11
2022-07-29T00:24:44.627Z,17.11
2022-07-29T00:25:15.803Z,17.11
2022-07-29T00:25:38.961Z,17.11
2022-07-29T00:26:02.760Z,17.11
2022-07-29T00:26:35.769Z,17.11
2022-07-29T00:27:08.559Z,17.11
2022-07-29T00:27:40.207Z,17.11
2022-07-29T00:28:10.528Z,17.11
2022-07-29T00:28:43.795Z,17.00
2022-07-29T00:29:33.577Z,17.00
2022-07-29T00:29:52.217Z,17.00
2022-07-29T00:30:20.236Z,17.00
2022-07-29T00:30:43.037Z,17.00
2022-07-29T00:31:05.680Z,16.88
2022-07-29T00:31:44.433Z,16.88
2022-07-29T00:32:06.791Z,16.88
2022-07-29T00:32:44.038Z,16.88
2022-07-29T00:33:15.770Z,16.88
2022-07-29T00:33:39.139Z,16.88
2022-07-29T00:34:02.574Z,16.77
2022-07-29T00:34:35.840Z,16.77
2022-07-29T00:35:10.287Z,16.77
2022-07-29T00:35:39.743Z,16.77
2022-07-29T00:36:10.180Z,16.77
2022-07-29T00:36:44.334Z,16.77
2022-07-29T00:37:15.662Z,16.77
2022-07-29T00:37:39.304Z,16.77
2022-07-29T00:38:03.060Z,16.77
2022-07-29T00:38:36.021Z,16.77
2022-07-29T00:39:07.776Z,16.77
2022-07-29T00:39:40.179Z,16.77
2022-07-29T00:40:14.147Z,16.77
2022-07-29T00:40:44.325Z,16.77
2022-07-29T00:41:15.756Z,16.77
2022-07-29T00:41:38.716Z,16.77
2022-07-29T00:42:00.976Z,16.77
2022-07-29T00:42:36.367Z,16.77
2022-07-29T00:43:09.327Z,16.72
2022-07-29T00:43:39.699Z,16.72
2022-07-29T00:44:12.156Z,16.72
2022-07-29T00:44:43.776Z,16.72
2022-07-29T00:45:15.955Z,16.72
2022-07-29T00:45:38.588Z,16.72
2022-07-29T00:46:01.265Z,16.72
2022-07-29T00:46:35.838Z,16.72
2022-07-29T00:47:08.274Z,16.72
2022-07-29T00:47:45.337Z,16.72
2022-07-29T00:48:10.046Z,16.72
2022-07-29T00:48:49.362Z,16.72
2022-07-29T00:49:18.374Z,16.72
2022-07-29T00:49:39.244Z,16.72
2022-07-29T00:50:01.782Z,16.72
2022-07-29T00:50:35.731Z,16.72
2022-07-29T00:51:07.958Z,16.72
2022-07-29T00:51:39.868Z,16.72
2022-07-29T00:52:10.205Z,16.72
2022-07-29T00:52:43.956Z,16.72
2022-07-29T00:53:21.360Z,16.72
2022-07-29T00:53:38.961Z,16.72
2022-07-29T00:54:01.261Z,16.72
2022-07-29T00:54:35.751Z,16.72
2022-07-29T00:55:08.732Z,16.72
2022-07-29T00:55:39.695Z,16.72
2022-07-29T00:56:10.238Z,16.72
2022-07-29T00:56:43.778Z,16.72
2022-07-29T00:57:15.758Z,16.72
2022-07-29T00:57:38.483Z,16.72
2022-07-29T00:58:00.754Z,16.72
2022-07-29T00:58:35.703Z,16.72
2022-07-29T00:59:08.127Z,16.61
2022-07-29T00:59:40.239Z,16.61
2022-07-29T01:00:10.708Z,16.61
2022-07-29T01:00:43.815Z,16.61
2022-07-29T01:01:15.896Z,16.61
2022-07-29T01:01:39.524Z,16.61
2022-07-29T01:02:01.788Z,16.61
2022-07-29T01:06:44.710Z,16.38
2022-07-29T01:06:52.259Z,16.38
2022-07-29T01:07:24.716Z,16.38
2022-07-29T01:07:52.872Z,16.27
2022-07-29T01:08:10.059Z,16.27
2022-07-29T01:08:47.858Z,16.27
2022-07-29T01:09:11.058Z,16.27
2022-07-29T01:09:46.928Z,16.27
2022-07-29T01:10:20.143Z,16.27
2022-07-29T01:10:42.430Z,16.27
2022-07-29T01:11:07.196Z,16.27
2022-07-29T01:11:39.666Z,16.27
2022-07-29T01:12:10.139Z,16.27
2022-07-29T01:12:44.239Z,16.27
2022-07-29T01:13:15.922Z,16.27
2022-07-29T01:13:39.403Z,16.27
2022-07-29T01:14:01.642Z,16.27
2022-07-29T01:14:35.749Z,16.27
2022-07-29T01:15:07.989Z,16.27
2022-07-29T01:15:39.706Z,16.38
2022-07-29T01:16:10.155Z,16.38
2022-07-29T01:16:43.804Z,16.38
2022-07-29T01:17:15.832Z,16.27
2022-07-29T01:17:38.643Z,16.27
2022-07-29T01:18:01.044Z,16.27
2022-07-29T01:18:35.635Z,16.27
2022-07-29T01:19:07.889Z,16.22
2022-07-29T01:19:39.734Z,16.22
2022-07-29T01:20:10.111Z,16.22
2022-07-29T01:20:47.184Z,16.22
2022-07-29T01:21:15.609Z,16.22
2022-07-29T01:21:39.114Z,16.22
2022-07-29T01:22:00.929Z,16.22
2022-07-29T01:22:35.707Z,16.22
2022-07-29T01:23:09.459Z,16.22
2022-07-29T01:23:39.748Z,16.22
2022-07-29T01:24:10.165Z,16.22
2022-07-29T01:24:43.735Z,16.22
2022-07-29T01:25:15.792Z,16.27
2022-07-29T01:25:38.759Z,16.27
2022-07-29T01:26:01.162Z,16.27
2022-07-29T01:26:36.192Z,16.27
2022-07-29T01:27:08.359Z,16.27
2022-07-29T01:27:39.569Z,16.27
2022-07-29T01:28:10.151Z,16.27
2022-07-29T01:28:43.666Z,16.27
2022-07-29T01:29:19.104Z,16.38
2022-07-29T01:29:40.405Z,16.38
2022-07-29T01:30:01.717Z,16.38
2022-07-29T01:30:35.880Z,16.38
2022-07-29T01:31:09.252Z,16.38
2022-07-29T01:31:46.396Z,16.38
2022-07-29T01:32:22.535Z,16.38
2022-07-29T01:32:43.679Z,16.38
2022-07-29T01:33:15.704Z,16.38
2022-07-29T01:33:41.407Z,16.38
2022-07-29T01:34:04.851Z,16.38
2022-07-29T01:34:35.739Z,16.38
2022-07-29T01:35:09.436Z,16.38
2022-07-29T01:35:39.751Z,16.38
2022-07-29T01:36:10.182Z,16.38
2022-07-29T01:36:43.732Z,16.38
2022-07-29T01:37:15.609Z,16.38
2022-07-29T01:37:40.680Z,16.38
2022-07-29T01:38:01.454Z,16.38
2022-07-29T01:38:35.708Z,16.38
2022-07-29T01:39:07.698Z,16.38
2022-07-29T01:39:41.172Z,16.50
2022-07-29T01:40:10.064Z,16.50
2022-07-29T01:40:43.733Z,16.50
2022-07-29T01:41:15.577Z,16.50
2022-07-29T01:41:38.385Z,16.61
2022-07-29T01:42:00.691Z,16.61
2022-07-29T01:42:35.563Z,16.61
2022-07-29T01:43:07.695Z,16.61
2022-07-29T01:43:40.514Z,16.61
2022-07-29T01:44:10.697Z,16.61
2022-07-29T01:44:43.779Z,16.61
2022-07-29T01:45:15.823Z,16.61
2022-07-29T01:45:42.802Z,16.61
2022-07-29T01:46:05.340Z,16.61
2022-07-29T01:46:35.725Z,16.72
2022-07-29T01:47:07.822Z,16.72
2022-07-29T01:47:39.665Z,16.72
2022-07-29T01:48:11.502Z,16.72
2022-07-29T01:48:44.005Z,16.61
2022-07-29T01:49:15.871Z,16.61
2022-07-29T01:49:38.738Z,16.61
2022-07-29T01:50:01.487Z,16.61
2022-07-29T01:50:35.691Z,16.61
2022-07-29T01:51:07.568Z,16.61
2022-07-29T01:51:42.243Z,16.61
2022-07-29T01:52:11.735Z,16.61
2022-07-29T01:52:43.709Z,16.61
2022-07-29T01:53:16.064Z,16.61
2022-07-29T01:53:38.906Z,16.61
2022-07-29T01:54:01.284Z,16.61
2022-07-29T01:54:35.682Z,16.61
2022-07-29T01:55:07.828Z,16.61
2022-07-29T01:55:39.956Z,16.61
2022-07-29T01:56:10.211Z,16.61
2022-07-29T01:56:43.544Z,16.61
2022-07-29T01:57:15.704Z,16.61
2022-07-29T01:57:38.220Z,16.61
2022-07-29T01:58:00.580Z,16.61
2022-07-29T01:58:35.690Z,16.61
2022-07-29T01:59:08.224Z,16.61
2022-07-29T01:59:39.814Z,16.61
2022-07-29T02:00:10.321Z,16.61
2022-07-29T02:00:44.005Z,16.61
2022-07-29T02:01:15.682Z,16.61
2022-07-29T02:01:42.162Z,16.61
2022-07-29T02:02:19.600Z,16.61
2022-07-29T02:02:42.258Z,16.61
2022-07-29T02:03:04.583Z,16.61
2022-07-29T02:03:39.929Z,16.61
2022-07-29T02:04:10.141Z,16.50
2022-07-29T02:04:43.755Z,16.50
2022-07-29T02:05:15.892Z,16.50
2022-07-29T02:05:39.377Z,16.50
2022-07-29T02:06:01.755Z,16.50
2022-07-29T02:06:37.226Z,16.50
2022-07-29T02:07:07.810Z,16.50
2022-07-29T02:07:39.668Z,16.38
2022-07-29T02:08:10.224Z,16.38
2022-07-29T02:08:43.699Z,16.38
2022-07-29T02:09:15.802Z,16.38
2022-07-29T02:09:38.807Z,16.38
2022-07-29T02:10:04.316Z,16.27
2022-07-29T02:10:36.254Z,16.27
2022-07-29T02:11:11.082Z,16.27
2022-07-29T02:11:39.931Z,16.22
2022-07-29T02:12:10.212Z,16.22
2022-07-29T02:12:43.575Z,16.22
2022-07-29T02:13:16.056Z,16.22
2022-07-29T02:13:38.388Z,16.22
2022-07-29T02:14:00.653Z,16.22
2022-07-29T02:14:35.585Z,16.22
2022-07-29T02:15:07.815Z,16.22
2022-07-29T02:15:39.678Z,16.22
2022-07-29T02:16:10.286Z,16.22
2022-07-29T02:16:43.631Z,16.22
2022-07-29T02:17:15.738Z,16.22
2022-07-29T02:17:38.756Z,16.22
2022-07-29T02:18:00.920Z,16.22
2022-07-29T02:18:35.672Z,16.22
2022-07-29T02:19:09.290Z,16.22
2022-07-29T02:19:39.538Z,16.22
2022-07-29T02:20:10.283Z,16.22
2022-07-29T02:20:43.821Z,16.22
2022-07-29T02:21:15.923Z,16.22
2022-07-29T02:21:42.103Z,16.22
2022-07-29T02:22:00.958Z,16.22
2022-07-29T02:22:35.650Z,16.22
2022-07-29T02:23:07.555Z,16.22
2022-07-29T02:23:45.047Z,16.22
2022-07-29T02:24:10.123Z,16.22
2022-07-29T02:24:43.578Z,16.22
2022-07-29T02:25:16.238Z,16.22
2022-07-29T02:25:38.561Z,16.22
2022-07-29T02:26:00.750Z,16.22
2022-07-29T02:26:35.876Z,16.22
2022-07-29T02:27:07.788Z,16.22
2022-07-29T02:27:43.222Z,16.22
2022-07-29T02:28:10.369Z,16.27
2022-07-29T02:28:47.053Z,16.27
2022-07-29T02:29:16.823Z,16.27
2022-07-29T02:29:44.594Z,16.27
2022-07-29T02:30:01.897Z,16.27
2022-07-29T02:30:35.812Z,16.27
2022-07-29T02:31:07.958Z,16.27
2022-07-29T02:31:39.671Z,16.22
2022-07-29T02:32:10.087Z,16.22
2022-07-29T02:32:43.622Z,16.22
2022-07-29T02:33:17.434Z,16.22
2022-07-29T02:33:38.390Z,16.22
2022-07-29T02:34:00.716Z,16.22
2022-07-29T02:34:35.647Z,16.22
2022-07-29T02:35:07.596Z,16.22
2022-07-29T02:35:39.887Z,16.22
2022-07-29T02:36:05.523Z,16.22
2022-07-29T02:36:44.012Z,16.22
2022-07-29T02:37:17.610Z,16.22
2022-07-29T02:37:38.342Z,16.22
2022-07-29T02:38:00.634Z,16.22
2022-07-29T02:38:35.987Z,16.22
2022-07-29T02:39:10.544Z,16.22
2022-07-29T02:39:40.614Z,16.22
2022-07-29T02:40:10.205Z,16.22
2022-07-29T02:40:44.329Z,16.27
2022-07-29T02:41:15.630Z,16.27
2022-07-29T02:41:38.335Z,16.27
2022-07-29T02:42:00.758Z,16.27
2022-07-29T02:42:35.660Z,16.27
2022-07-29T02:43:07.718Z,16.27
2022-07-29T02:43:39.547Z,16.27
2022-07-29T02:44:16.887Z,16.27
2022-07-29T02:44:44.243Z,16.27
2022-07-29T02:45:15.986Z,16.27
2022-07-29T02:45:38.730Z,16.27
2022-07-29T02:46:02.374Z,16.27
2022-07-29T02:46:36.528Z,16.27
2022-07-29T02:47:08.831Z,16.27
2022-07-29T02:47:41.258Z,16.27
2022-07-29T02:48:10.525Z,16.38
2022-07-29T02:48:43.790Z,16.38
2022-07-29T02:49:16.113Z,16.38
2022-07-29T02:49:38.600Z,16.38
2022-07-29T02:50:02.467Z,16.38
2022-07-29T02:50:35.755Z,16.38
2022-07-29T02:51:08.207Z,16.38
2022-07-29T02:51:44.135Z,16.38
2022-07-29T02:52:10.763Z,16.38
2022-07-29T02:52:47.452Z,16.38
2022-07-29T02:53:16.110Z,16.38
2022-07-29T02:53:38.751Z,16.38
2022-07-29T02:54:01.379Z,16.38
2022-07-29T02:54:39.729Z,16.27
2022-07-29T02:55:12.131Z,16.27
2022-07-29T02:55:34.597Z,16.27
2022-07-29T02:56:10.352Z,16.27
2022-07-29T02:56:43.859Z,16.27
2022-07-29T02:57:16.030Z,16.27
2022-07-29T02:57:54.742Z,16.27
2022-07-29T02:58:00.485Z,16.22
2022-07-29T02:58:35.688Z,16.22
2022-07-29T02:59:11.180Z,16.22
2022-07-29T02:59:39.750Z,16.22
2022-07-29T03:00:10.434Z,16.11
2022-07-29T03:00:43.642Z,16.11
2022-07-29T03:01:20.909Z,16.11
2022-07-29T03:01:39.931Z,16.11
2022-07-29T03:02:02.284Z,16.11
2022-07-29T03:02:35.646Z,16.22
2022-07-29T03:03:07.628Z,16.22
2022-07-29T03:03:39.511Z,16.22
2022-07-29T03:04:10.079Z,16.22
2022-07-29T03:04:43.621Z,16.22
2022-07-29T03:05:16.312Z,16.22
2022-07-29T03:05:38.571Z,16.11
2022-07-29T03:06:01.247Z,16.11
2022-07-29T03:06:39.123Z,16.11
2022-07-29T03:07:07.654Z,16.11
2022-07-29T03:07:39.712Z,16.11
2022-07-29T03:08:10.192Z,16.11
2022-07-29T03:08:43.673Z,16.11
2022-07-29T03:09:15.464Z,16.00
2022-07-29T03:09:38.805Z,16.00
2022-07-29T03:10:00.675Z,16.00
2022-07-29T03:10:35.663Z,16.00
2022-07-29T03:11:07.478Z,16.00
2022-07-29T03:11:41.527Z,16.00
2022-07-29T03:12:10.288Z,15.88
2022-07-29T03:12:43.597Z,15.88
2022-07-29T03:13:15.992Z,15.88
2022-07-29T03:13:38.437Z,15.88
2022-07-29T03:14:00.958Z,15.88
2022-07-29T03:14:35.640Z,15.88
2022-07-29T03:15:07.633Z,15.88
2022-07-29T03:15:46.052Z,15.88
2022-07-29T03:16:10.187Z,15.88
2022-07-29T03:16:43.813Z,15.88
2022-07-29T03:17:15.478Z,15.77
2022-07-29T03:17:38.740Z,15.77
2022-07-29T03:18:01.018Z,15.77
2022-07-29T03:18:35.649Z,15.77
2022-07-29T03:19:08.202Z,15.72
2022-07-29T03:19:39.553Z,15.72
2022-07-29T03:20:10.223Z,15.72
2022-07-29T03:20:43.770Z,15.72
2022-07-29T03:21:15.974Z,15.72
2022-07-29T03:21:38.563Z,15.61
2022-07-29T03:22:00.805Z,15.61
2022-07-29T03:22:35.571Z,15.61
2022-07-29T03:23:07.733Z,15.72
2022-07-29T03:23:39.459Z,15.72
2022-07-29T03:24:10.943Z,15.72
2022-07-29T03:24:43.614Z,15.72
2022-07-29T03:25:15.607Z,15.61
2022-07-29T03:25:40.139Z,15.61
2022-07-29T03:26:02.505Z,15.61
2022-07-29T03:26:35.668Z,15.61
2022-07-29T03:27:07.579Z,15.61
2022-07-29T03:27:39.776Z,15.61
2022-07-29T03:28:10.636Z,15.61
2022-07-29T03:28:43.639Z,15.61
2022-07-29T03:29:15.551Z,15.61
2022-07-29T03:29:38.179Z,15.61
2022-07-29T03:30:01.097Z,15.61
2022-07-29T03:30:35.647Z,15.61
2022-07-29T03:31:07.896Z,15.61
2022-07-29T03:31:39.705Z,15.61
2022-07-29T03:32:10.121Z,15.61
2022-07-29T03:32:44.037Z,15.61
2022-07-29T03:33:15.599Z,15.61
2022-07-29T03:33:38.291Z,15.61
2022-07-29T03:34:00.861Z,15.61
2022-07-29T03:34:35.661Z,15.61
2022-07-29T03:35:07.591Z,15.61
2022-07-29T03:35:39.579Z,15.61
2022-07-29T03:36:11.647Z,15.50
2022-07-29T03:36:43.588Z,15.50
2022-07-29T03:37:16.321Z,15.50
2022-07-29T03:37:38.606Z,15.50
2022-07-29T03:38:01.000Z,15.50
2022-07-29T03:38:35.517Z,15.50
2022-07-29T03:39:07.493Z,15.50
2022-07-29T03:39:39.643Z,15.50
2022-07-29T03:40:10.672Z,15.50
2022-07-29T03:40:43.475Z,15.50
2022-07-29T03:41:16.010Z,15.50
2022-07-29T03:41:38.774Z,15.50
2022-07-29T03:42:01.083Z,15.38
2022-07-29T03:42:35.726Z,15.38
2022-07-29T03:43:07.615Z,15.38
2022-07-29T03:43:49.231Z,15.38
2022-07-29T03:44:10.412Z,15.27
2022-07-29T03:44:43.583Z,15.27
2022-07-29T03:45:15.517Z,15.27
2022-07-29T03:45:38.570Z,15.27
2022-07-29T03:46:02.426Z,15.27
2022-07-29T03:46:35.691Z,15.27
2022-07-29T03:47:08.974Z,15.27
2022-07-29T03:47:50.445Z,15.27
2022-07-29T03:48:10.386Z,15.27
2022-07-29T03:48:49.172Z,15.27
2022-07-29T03:49:16.044Z,15.22
2022-07-29T03:49:39.045Z,15.22
2022-07-29T03:50:01.905Z,15.22
2022-07-29T03:50:35.738Z,15.22
2022-07-29T03:51:07.603Z,15.22
2022-07-29T03:51:39.575Z,15.11
2022-07-29T03:52:10.197Z,15.11
2022-07-29T03:52:43.519Z,15.11
2022-07-29T03:53:15.858Z,15.11
2022-07-29T03:53:38.314Z,15.11
2022-07-29T03:54:02.146Z,15.11
2022-07-29T03:54:35.599Z,15.11
2022-07-29T03:55:07.792Z,15.11
2022-07-29T03:55:39.580Z,15.11
2022-07-29T03:56:10.265Z,15.11
2022-07-29T03:56:43.519Z,15.11
2022-07-29T03:57:15.759Z,15.22
2022-07-29T03:57:38.891Z,15.22
2022-07-29T03:58:01.116Z,15.22
2022-07-29T03:58:35.515Z,15.22
2022-07-29T03:59:07.783Z,15.22
2022-07-29T03:59:39.920Z,15.22
2022-07-29T04:00:10.471Z,15.22
2022-07-29T04:00:43.726Z,15.22
2022-07-29T04:01:15.527Z,15.22
2022-07-29T04:01:39.491Z,15.22
2022-07-29T04:02:01.907Z,15.11
2022-07-29T04:02:35.682Z,15.11
2022-07-29T04:03:10.483Z,15.11
2022-07-29T04:03:39.919Z,15.11
2022-07-29T04:04:11.454Z,15.11
2022-07-29T04:04:43.903Z,15.11
2022-07-29T04:05:15.550Z,15.22
2022-07-29T04:05:38.603Z,15.22
2022-07-29T04:06:00.902Z,15.22
2022-07-29T04:06:35.603Z,15.22
2022-07-29T04:07:07.622Z,15.22
2022-07-29T04:07:39.730Z,15.22
2022-07-29T04:08:10.219Z,15.22
2022-07-29T04:08:43.650Z,15.22
2022-07-29T04:09:15.562Z,15.22
2022-07-29T04:09:38.223Z,15.22
2022-07-29T04:10:00.823Z,15.22
2022-07-29T04:10:35.950Z,15.22
2022-07-29T04:11:07.582Z,15.22
2022-07-29T04:11:59.781Z,15.22
2022-07-29T04:12:10.369Z,15.22
2022-07-29T04:12:43.642Z,15.22
2022-07-29T04:13:19.199Z,15.27
2022-07-29T04:13:39.095Z,15.38
2022-07-29T04:14:01.500Z,15.38
2022-07-29T04:14:35.981Z,15.38
2022-07-29T04:15:07.673Z,15.38
2022-07-29T04:15:39.770Z,15.38
2022-07-29T04:16:10.698Z,15.38
2022-07-29T04:16:43.974Z,15.38
2022-07-29T04:17:15.469Z,15.38
2022-07-29T04:17:38.778Z,15.38
2022-07-29T04:18:01.164Z,15.38
2022-07-29T04:18:35.580Z,15.38
2022-07-29T04:19:09.010Z,15.38
2022-07-29T04:19:39.459Z,15.38
2022-07-29T04:20:10.206Z,15.38
2022-07-29T04:20:43.872Z,15.50
2022-07-29T04:21:15.555Z,15.50
2022-07-29T04:21:39.049Z,15.50
2022-07-29T04:22:01.510Z,15.50
2022-07-29T04:22:35.551Z,15.38
2022-07-29T04:23:07.584Z,15.38
2022-07-29T04:23:52.944Z,15.27
2022-07-29T04:24:10.244Z,15.27
2022-07-29T04:24:44.552Z,15.27
2022-07-29T04:25:15.672Z,15.27
2022-07-29T04:25:38.363Z,15.27
2022-07-29T04:26:00.787Z,15.27
2022-07-29T04:26:35.543Z,15.27
2022-07-29T04:27:07.543Z,15.22
2022-07-29T04:27:39.442Z,15.22
2022-07-29T04:28:10.182Z,15.22
2022-07-29T04:28:43.606Z,15.11
2022-07-29T04:29:18.050Z,15.11
2022-07-29T04:29:57.046Z,15.11
2022-07-29T04:30:04.198Z,15.11
2022-07-29T04:30:35.836Z,15.11
2022-07-29T04:31:07.537Z,15.11
2022-07-29T04:31:39.619Z,15.11
2022-07-29T04:32:10.158Z,15.11
2022-07-29T04:32:43.835Z,15.22
2022-07-29T04:33:15.950Z,15.22
2022-07-29T04:33:38.558Z,15.22
2022-07-29T04:34:02.183Z,15.22
2022-07-29T04:34:35.902Z,15.22
2022-07-29T04:35:07.639Z,15.22
2022-07-29T04:35:50.494Z,15.22
2022-07-29T04:36:28.397Z,15.22
2022-07-29T04:36:43.471Z,15.22
2022-07-29T04:37:15.470Z,15.27
2022-07-29T04:37:43.457Z,15.27
2022-07-29T04:38:02.309Z,15.27
2022-07-29T04:38:35.443Z,15.27
2022-07-29T04:39:07.987Z,15.38
2022-07-29T04:39:39.660Z,15.38
2022-07-29T04:40:10.182Z,15.38
2022-07-29T04:40:43.447Z,15.38
2022-07-29T04:41:15.581Z,15.38
2022-07-29T04:41:38.278Z,15.38
2022-07-29T04:42:00.675Z,15.38
2022-07-29T04:42:35.614Z,15.50
2022-07-29T04:43:07.570Z,15.50
2022-07-29T04:43:39.554Z,15.50
2022-07-29T04:44:10.400Z,15.50
2022-07-29T04:44:43.449Z,15.50
2022-07-29T04:45:16.119Z,15.50
2022-07-29T04:45:38.844Z,15.61
2022-07-29T04:46:01.310Z,15.61
2022-07-29T04:46:35.808Z,15.61
2022-07-29T04:47:10.929Z,15.61
2022-07-29T04:47:39.567Z,15.61
2022-07-29T04:48:10.291Z,15.72
2022-07-29T04:48:43.582Z,15.72
2022-07-29T04:49:15.968Z,15.77
2022-07-29T04:49:38.558Z,15.77
2022-07-29T04:50:01.654Z,15.77
2022-07-29T04:50:35.546Z,15.88
2022-07-29T04:51:07.430Z,15.88
2022-07-29T04:51:39.553Z,15.88
2022-07-29T04:52:10.152Z,16.00
2022-07-29T04:52:43.455Z,16.00
2022-07-29T04:53:18.966Z,16.11
2022-07-29T04:53:38.410Z,16.11
2022-07-29T04:54:00.432Z,16.11
2022-07-29T04:54:35.665Z,16.11
2022-07-29T04:55:08.030Z,16.22
2022-07-29T04:55:39.529Z,16.22
2022-07-29T04:56:10.249Z,16.22
2022-07-29T04:56:43.456Z,16.27
2022-07-29T04:57:09.466Z,16.27
2022-07-29T04:57:42.129Z,16.27
2022-07-29T04:58:19.457Z,16.38
2022-07-29T04:58:41.918Z,16.38
2022-07-29T04:59:04.718Z,16.38
2022-07-29T04:59:39.682Z,16.50
2022-07-29T05:00:10.377Z,16.50
2022-07-29T05:00:43.632Z,16.50
2022-07-29T05:01:15.999Z,16.50
2022-07-29T05:01:41.154Z,16.50
2022-07-29T05:02:03.384Z,16.61
2022-07-29T05:02:36.330Z,16.61
2022-07-29T05:03:07.502Z,16.61
2022-07-29T05:03:33.655Z,16.61
2022-07-29T05:04:17.389Z,16.72
2022-07-29T05:04:43.631Z,16.72
2022-07-29T05:05:15.597Z,16.72
2022-07-29T05:05:38.422Z,16.72
2022-07-29T05:06:00.895Z,16.77
2022-07-29T05:06:39.795Z,16.88
2022-07-29T05:07:01.878Z,16.88
2022-07-29T05:07:39.902Z,16.88
2022-07-29T05:08:10.183Z,16.88
2022-07-29T05:08:43.662Z,16.88
2022-07-29T05:09:15.414Z,16.88
2022-07-29T05:09:38.082Z,17.00
2022-07-29T05:10:00.566Z,17.00
2022-07-29T05:10:37.018Z,17.00
2022-07-29T05:11:12.113Z,17.00
2022-07-29T05:11:41.877Z,17.00
2022-07-29T05:12:16.732Z,17.11
2022-07-29T05:12:43.510Z,17.11
2022-07-29T05:13:16.019Z,17.11
2022-07-29T05:13:45.301Z,17.11
2022-07-29T05:14:01.379Z,17.11
2022-07-29T05:14:37.499Z,17.11
2022-07-29T05:15:07.743Z,17.11
2022-07-29T05:15:39.812Z,17.11
2022-07-29T05:16:11.576Z,17.22
2022-07-29T05:16:43.386Z,17.22
2022-07-29T05:17:15.395Z,17.22
2022-07-29T05:17:38.200Z,17.22
2022-07-29T05:18:00.479Z,17.22
2022-07-29T05:18:38.117Z,17.22
2022-07-29T05:19:14.531Z,17.22
2022-07-29T05:19:39.934Z,17.22
2022-07-29T05:20:10.190Z,17.22
2022-07-29T05:20:43.682Z,17.22
2022-07-29T05:21:15.504Z,17.22
2022-07-29T05:21:38.361Z,17.22
2022-07-29T05:22:00.575Z,17.22
2022-07-29T05:22:35.512Z,17.22
2022-07-29T05:23:07.398Z,17.27
2022-07-29T05:23:39.498Z,17.27
2022-07-29T05:24:10.198Z,17.27
2022-07-29T05:24:47.076Z,17.27
2022-07-29T05:25:15.373Z,17.27
2022-07-29T05:25:43.381Z,17.27
2022-07-29T05:26:00.506Z,17.27
2022-07-29T05:26:35.712Z,17.38
2022-07-29T05:27:09.994Z,17.38
2022-07-29T05:27:39.440Z,17.38
2022-07-29T05:28:10.281Z,17.38
2022-07-29T05:28:43.883Z,17.38
2022-07-29T05:29:44.843Z,17.38
2022-07-29T05:29:48.907Z,17.38
2022-07-29T05:30:19.996Z,17.50
2022-07-29T05:30:42.873Z,17.50
2022-07-29T05:31:05.627Z,17.50
2022-07-29T05:31:39.532Z,17.50
2022-07-29T05:32:10.166Z,17.50
2022-07-29T05:32:43.581Z,17.50
2022-07-29T05:33:35.199Z,17.50
2022-07-29T05:33:40.187Z,17.50
2022-07-29T05:34:00.710Z,17.50
2022-07-29T05:34:35.533Z,17.61
2022-07-29T05:35:08.926Z,17.61
2022-07-29T05:35:40.073Z,17.61
2022-07-29T05:36:10.676Z,17.61
2022-07-29T05:36:43.605Z,17.61
2022-07-29T05:37:15.355Z,17.61
2022-07-29T05:37:40.403Z,17.61
2022-07-29T05:38:00.665Z,17.61
2022-07-29T05:38:35.471Z,17.61
2022-07-29T05:39:07.625Z,17.61
2022-07-29T05:39:48.453Z,17.61
2022-07-29T05:40:10.215Z,17.61
2022-07-29T05:40:45.851Z,17.61
2022-07-29T05:41:15.682Z,17.61
2022-07-29T05:41:41.073Z,17.61
2022-07-29T05:42:01.591Z,17.61
2022-07-29T05:42:35.741Z,17.61
2022-07-29T05:43:07.809Z,17.61
2022-07-29T05:43:41.214Z,17.72
2022-07-29T05:44:10.263Z,17.72
2022-07-29T05:44:43.765Z,17.72
2022-07-29T05:45:15.556Z,17.72
2022-07-29T05:45:49.840Z,17.72
2022-07-29T05:46:02.111Z,17.72
2022-07-29T05:46:35.426Z,17.72
2022-07-29T05:47:22.987Z,17.72
2022-07-29T05:47:39.606Z,17.77
2022-07-29T05:48:05.823Z,17.77
2022-07-29T05:48:43.985Z,17.77
2022-07-29T05:49:22.955Z,17.77
2022-07-29T05:49:38.859Z,17.88
2022-07-29T05:50:01.709Z,18.00
2022-07-29T05:50:36.786Z,18.00
2022-07-29T05:51:07.475Z,18.00
2022-07-29T05:51:39.610Z,17.88
2022-07-29T05:52:10.288Z,17.88
2022-07-29T05:52:44.386Z,17.88
2022-07-29T05:53:19.146Z,17.88
2022-07-29T05:53:38.128Z,17.88
2022-07-29T05:54:01.385Z,18.00
2022-07-29T05:54:35.615Z,18.00
2022-07-29T05:55:08.694Z,18.11
2022-07-29T05:55:40.245Z,18.11
2022-07-29T05:56:10.472Z,18.11
2022-07-29T05:56:43.468Z,18.11
2022-07-29T05:57:16.997Z,18.11
2022-07-29T05:57:38.241Z,18.11
2022-07-29T05:58:00.929Z,18.11
2022-07-29T05:58:35.801Z,18.11
2022-07-29T05:59:17.800Z,18.22
2022-07-29T05:59:40.315Z,18.22
2022-07-29T06:00:10.399Z,18.22
2022-07-29T06:00:44.162Z,18.22
2022-07-29T06:01:16.208Z,18.22
2022-07-29T06:01:38.986Z,18.22
2022-07-29T06:02:01.835Z,18.22
2022-07-29T06:02:35.718Z,18.22
2022-07-29T06:03:11.579Z,18.27
2022-07-29T06:03:34.414Z,18.27
2022-07-29T06:04:10.451Z,18.27
2022-07-29T06:04:44.587Z,18.27
2022-07-29T06:05:16.528Z,18.38
2022-07-29T06:05:38.910Z,18.38
2022-07-29T06:06:01.265Z,18.38
2022-07-29T06:06:35.430Z,18.38
2022-07-29T06:07:07.519Z,18.38
2022-07-29T06:07:39.507Z,18.38
2022-07-29T06:08:10.825Z,18.38
2022-07-29T06:08:49.807Z,18.38
2022-07-29T06:09:16.870Z,18.38
2022-07-29T06:09:38.585Z,18.38
2022-07-29T06:10:00.828Z,18.38
2022-07-29T06:10:35.361Z,18.38
2022-07-29T06:11:07.448Z,18.38
2022-07-29T06:11:39.439Z,18.38
2022-07-29T06:12:10.342Z,18.38
2022-07-29T06:12:45.663Z,18.38
2022-07-29T06:13:20.932Z,18.38
2022-07-29T06:13:41.136Z,18.38
2022-07-29T06:14:02.942Z,18.38
2022-07-29T06:14:35.813Z,18.38
2022-07-29T06:15:07.525Z,18.38
2022-07-29T06:15:39.456Z,18.38
2022-07-29T06:16:10.336Z,18.38
2022-07-29T06:16:43.462Z,18.38
2022-07-29T06:17:15.431Z,18.38
2022-07-29T06:17:38.373Z,18.38
2022-07-29T06:18:01.734Z,18.38
2022-07-29T06:18:35.619Z,18.50
2022-07-29T06:19:09.929Z,18.50
2022-07-29T06:19:39.434Z,18.50
2022-07-29T06:20:10.824Z,18.50
2022-07-29T06:20:41.721Z,18.50
2022-07-29T06:21:12.599Z,18.50
2022-07-29T06:21:42.335Z,18.50
2022-07-29T06:22:19.425Z,18.50
2022-07-29T06:22:42.073Z,18.50
2022-07-29T06:23:04.579Z,18.50
2022-07-29T06:23:39.404Z,18.50
2022-07-29T06:24:10.279Z,18.61
2022-07-29T06:24:43.434Z,18.61
2022-07-29T06:25:16.029Z,18.61
2022-07-29T06:25:38.117Z,18.61
2022-07-29T06:26:00.455Z,18.61
2022-07-29T06:26:39.514Z,18.61
2022-07-29T06:27:07.293Z,18.61
2022-07-29T06:27:39.413Z,18.61
2022-07-29T06:28:10.238Z,18.61
2022-07-29T06:28:43.451Z,18.61
2022-07-29T06:29:15.397Z,18.61
2022-07-29T06:29:38.156Z,18.61
2022-07-29T06:30:00.690Z,18.61
2022-07-29T06:30:35.623Z,18.61
2022-07-29T06:31:08.059Z,18.61
2022-07-29T06:31:39.373Z,18.61
2022-07-29T06:32:10.257Z,18.61
2022-07-29T06:32:43.569Z,18.61
2022-07-29T06:33:15.475Z,18.61
2022-07-29T06:33:38.250Z,18.61
2022-07-29T06:34:00.565Z,18.61
2022-07-29T06:34:35.485Z,18.61
2022-07-29T06:35:37.891Z,18.61
2022-07-29T06:35:53.418Z,18.61
2022-07-29T06:36:10.884Z,18.61